createdAt,value
2023-03-22T00:02:26.477Z,3.90
2023-03-22T00:04:53.689Z,3.88
2023-03-22T00:07:20.620Z,3.67
2023-03-22T00:09:47.419Z,4.45
2023-03-22T00:12:14.196Z,4.43
2023-03-22T00:14:41.324Z,5.10
2023-03-22T00:17:08.103Z,4.68
2023-03-22T00:19:34.856Z,4.32
2023-03-22T00:22:01.979Z,4.38
2023-03-22T00:24:28.762Z,6.35
2023-03-22T00:26:55.610Z,4.75
2023-03-22T00:29:24.050Z,3.80
2023-03-22T00:31:51.975Z,3.95
2023-03-22T00:34:18.918Z,4.10
2023-03-22T00:36:45.895Z,4.03
2023-03-22T00:39:12.737Z,3.42
2023-03-22T00:41:39.478Z,3.88
2023-03-22T00:44:06.188Z,3.40
2023-03-22T00:46:33.062Z,3.65
2023-03-22T00:48:59.936Z,3.55
2023-03-22T00:51:26.679Z,3.70
2023-03-22T00:53:54.712Z,3.42
2023-03-22T00:56:23.034Z,3.17
2023-03-22T00:59:06.554Z,3.20
2023-03-22T01:01:33.418Z,2.70
2023-03-22T01:04:00.620Z,2.80
2023-03-22T01:06:27.471Z,2.63
2023-03-22T01:08:55.150Z,3.63
2023-03-22T01:11:22.061Z,3.88
2023-03-22T01:13:49.033Z,3.17
2023-03-22T01:16:16.013Z,3.45
2023-03-22T01:18:43.089Z,3.75
2023-03-22T01:21:10.648Z,3.85
2023-03-22T01:23:37.780Z,3.40
2023-03-22T01:26:05.573Z,3.45
2023-03-22T01:28:32.562Z,3.45
2023-03-22T01:31:03.004Z,3.40
2023-03-22T01:33:30.736Z,3.40
2023-03-22T01:35:57.670Z,3.90
2023-03-22T01:38:24.687Z,3.03
2023-03-22T01:40:58.202Z,3.15
2023-03-22T01:43:26.424Z,3.33
2023-03-22T01:45:54.617Z,3.88
2023-03-22T01:48:46.148Z,4.15
2023-03-22T01:51:19.857Z,3.90
2023-03-22T01:54:12.620Z,3.40
2023-03-22T01:56:42.671Z,4.00
2023-03-22T01:59:16.082Z,4.78
2023-03-22T02:02:00.224Z,3.90
2023-03-22T02:04:34.219Z,4.50
2023-03-22T02:09:42.259Z,4.32
2023-03-22T02:12:30.986Z,4.20
2023-03-22T02:15:18.520Z,4.05
2023-03-22T02:18:11.295Z,4.50
2023-03-22T02:20:49.651Z,5.10
2023-03-22T02:23:44.620Z,5.07
2023-03-22T02:26:41.496Z,4.95
2023-03-22T02:29:22.869Z,5.32
2023-03-22T02:31:49.754Z,6.38
2023-03-22T02:34:54.353Z,6.07
2023-03-22T02:37:52.588Z,7.50
2023-03-22T02:40:33.170Z,6.47
2023-03-22T02:43:30.991Z,5.35
2023-03-22T02:46:47.325Z,5.38
2023-03-22T02:49:26.959Z,5.43
2023-03-22T02:52:33.203Z,5.38
2023-03-22T02:55:29.192Z,5.70
2023-03-22T02:58:17.738Z,5.55
2023-03-22T03:00:47.721Z,5.20
2023-03-22T03:03:18.182Z,5.40
2023-03-22T03:05:56.513Z,5.47
2023-03-22T03:08:25.288Z,6.18
2023-03-22T03:10:53.616Z,5.75
2023-03-22T03:13:20.855Z,6.57
2023-03-22T03:15:55.193Z,5.97
2023-03-22T03:18:35.026Z,6.22
2023-03-22T03:21:09.739Z,7.50
2023-03-22T03:26:29.350Z,7.68
2023-03-22T03:29:01.439Z,6.57
2023-03-22T03:31:53.353Z,5.75
2023-03-22T03:34:26.746Z,5.75
2023-03-22T03:37:08.287Z,5.95
2023-03-22T03:39:41.305Z,5.95
2023-03-22T03:42:14.930Z,7.07
2023-03-22T03:44:42.753Z,5.82
2023-03-22T03:47:12.037Z,5.10
2023-03-22T03:49:39.392Z,4.90
2023-03-22T03:52:06.697Z,5.50
2023-03-22T03:54:34.210Z,5.15
2023-03-22T03:57:03.994Z,5.00
2023-03-22T03:59:31.065Z,5.03
2023-03-22T04:02:00.453Z,4.97
2023-03-22T04:04:30.569Z,6.10
2023-03-22T04:07:03.949Z,6.72
2023-03-22T04:09:33.980Z,6.00
2023-03-22T04:12:23.122Z,5.85
2023-03-22T04:15:12.733Z,4.88
2023-03-22T04:17:41.278Z,5.50
2023-03-22T04:20:10.915Z,5.32
2023-03-22T04:22:38.659Z,4.43
2023-03-22T04:25:11.793Z,5.63
2023-03-22T04:27:43.044Z,6.00
2023-03-22T04:30:18.869Z,4.47
2023-03-22T04:33:01.331Z,5.65
2023-03-22T04:35:46.192Z,5.28
2023-03-22T04:38:14.457Z,5.13
2023-03-22T04:40:46.930Z,4.60
2023-03-22T04:43:20.774Z,5.07
2023-03-22T04:46:10.097Z,5.60
2023-03-22T04:48:43.195Z,3.77
2023-03-22T04:51:11.898Z,4.72
2023-03-22T04:53:46.995Z,3.88
2023-03-22T04:56:15.474Z,4.53
2023-03-22T04:58:44.494Z,4.85
2023-03-22T05:01:14.902Z,4.15
2023-03-22T05:03:45.724Z,4.50
2023-03-22T05:06:13.151Z,4.93
2023-03-22T05:09:01.098Z,4.13
2023-03-22T05:11:28.109Z,4.10
2023-03-22T05:14:14.845Z,3.92
2023-03-22T05:16:41.859Z,4.25
2023-03-22T05:19:13.806Z,4.40
2023-03-22T05:21:44.146Z,5.72
2023-03-22T05:24:11.848Z,4.20
2023-03-22T05:26:43.796Z,6.30
2023-03-22T05:29:12.273Z,6.25
2023-03-22T05:31:54.009Z,7.68
2023-03-22T05:34:21.961Z,9.15
2023-03-22T05:36:51.465Z,8.52
2023-03-22T05:39:31.326Z,7.70
2023-03-22T05:41:58.996Z,8.38
2023-03-22T05:44:26.074Z,7.83
2023-03-22T05:47:01.932Z,9.02
2023-03-22T05:49:38.497Z,8.63
2023-03-22T05:52:06.090Z,8.02
2023-03-22T05:54:51.608Z,8.15
2023-03-22T05:57:18.537Z,8.20
2023-03-22T05:59:45.670Z,7.53
2023-03-22T06:02:18.947Z,6.97
2023-03-22T06:04:46.812Z,6.70
2023-03-22T06:07:15.936Z,7.50
2023-03-22T06:09:47.838Z,9.10
2023-03-22T06:12:22.457Z,10.00
2023-03-22T06:14:52.707Z,6.35
2023-03-22T06:17:51.719Z,7.78
2023-03-22T06:20:23.414Z,6.80
2023-03-22T06:22:57.569Z,10.07
2023-03-22T06:25:24.601Z,9.50
2023-03-22T06:27:51.401Z,10.73
2023-03-22T06:30:19.086Z,9.48
2023-03-22T06:35:35.887Z,14.13
2023-03-22T06:38:04.176Z,12.38
2023-03-22T06:40:31.222Z,12.48
2023-03-22T06:42:58.088Z,10.07
2023-03-22T06:45:25.596Z,7.93
2023-03-22T06:47:52.475Z,8.90
2023-03-22T06:50:44.865Z,11.10
2023-03-22T06:53:14.689Z,9.60
2023-03-22T06:55:41.616Z,12.10
2023-03-22T06:58:15.303Z,12.40
2023-03-22T07:00:42.339Z,11.13
2023-03-22T07:03:09.274Z,11.73
2023-03-22T07:05:43.120Z,12.10
2023-03-22T07:08:10.607Z,12.18
2023-03-22T07:10:43.653Z,10.93
2023-03-22T07:13:10.791Z,8.95
2023-03-22T07:15:38.300Z,12.93
2023-03-22T07:18:12.618Z,9.45
2023-03-22T07:20:41.516Z,10.52
2023-03-22T07:23:10.716Z,9.43
2023-03-22T07:25:46.711Z,9.57
2023-03-22T07:28:25.349Z,8.27
2023-03-22T07:31:09.878Z,8.85
2023-03-22T07:33:46.000Z,7.90
2023-03-22T07:36:12.955Z,7.00
2023-03-22T07:38:39.933Z,8.20
2023-03-22T07:41:11.536Z,8.20
2023-03-22T07:43:58.391Z,9.73
2023-03-22T07:46:31.786Z,11.55
2023-03-22T07:49:21.387Z,10.57
2023-03-22T07:52:07.765Z,10.43
2023-03-22T07:54:34.792Z,9.73
2023-03-22T07:57:04.048Z,11.63
2023-03-22T07:59:34.810Z,9.95
2023-03-22T08:02:02.354Z,8.57
2023-03-22T08:04:38.990Z,8.60
2023-03-22T08:07:18.544Z,8.88
2023-03-22T08:09:49.522Z,9.35
2023-03-22T08:12:16.632Z,7.35
2023-03-22T08:14:50.371Z,7.78
2023-03-22T08:17:21.523Z,7.57
2023-03-22T08:19:48.560Z,6.32
2023-03-22T08:22:25.064Z,9.05
2023-03-22T08:25:10.576Z,7.28
2023-03-22T08:27:39.420Z,6.80
2023-03-22T08:30:07.507Z,6.43
2023-03-22T08:32:34.811Z,6.97
2023-03-22T08:35:05.048Z,5.65
2023-03-22T08:37:31.865Z,5.18
2023-03-22T08:40:01.342Z,5.93
2023-03-22T08:42:41.283Z,5.00
2023-03-22T08:45:10.285Z,5.07
2023-03-22T08:47:43.654Z,5.53
2023-03-22T08:50:11.788Z,5.55
2023-03-22T08:52:54.966Z,6.97
2023-03-22T08:55:26.358Z,5.30
2023-03-22T08:58:12.940Z,5.13
2023-03-22T09:00:49.946Z,5.32
2023-03-22T09:03:40.045Z,6.10
2023-03-22T09:06:07.710Z,5.05
2023-03-22T09:08:38.279Z,5.07
2023-03-22T09:11:11.182Z,4.82
2023-03-22T09:13:38.091Z,6.85
2023-03-22T09:16:09.035Z,5.43
2023-03-22T09:18:37.459Z,6.75
2023-03-22T09:21:11.172Z,5.78
2023-03-22T09:23:53.172Z,4.93
2023-03-22T09:26:25.584Z,5.32
2023-03-22T09:28:53.108Z,5.93
2023-03-22T09:31:20.714Z,4.15
2023-03-22T09:33:53.438Z,4.43
2023-03-22T09:36:20.740Z,5.15
2023-03-22T09:38:49.870Z,4.65
2023-03-22T09:41:22.412Z,3.08
2023-03-22T09:43:53.745Z,3.95
2023-03-22T09:46:29.759Z,3.22
2023-03-22T09:48:59.743Z,2.97
2023-03-22T09:51:51.061Z,2.42
2023-03-22T09:54:21.732Z,5.43
2023-03-22T09:56:55.809Z,3.28
2023-03-22T09:59:32.777Z,3.58
2023-03-22T10:02:02.860Z,2.67
2023-03-22T10:04:45.185Z,2.42
2023-03-22T10:07:20.313Z,2.97
2023-03-22T10:10:05.838Z,1.55
2023-03-22T10:12:38.692Z,3.15
2023-03-22T10:15:12.731Z,2.40
2023-03-22T10:17:42.124Z,1.80
2023-03-22T10:20:33.078Z,1.25
2023-03-22T10:23:01.756Z,1.38
2023-03-22T10:25:36.847Z,1.20
2023-03-22T10:28:20.166Z,1.90
2023-03-22T10:30:55.743Z,2.00
2023-03-22T10:33:50.041Z,2.15
2023-03-22T10:36:19.642Z,1.75
2023-03-22T10:38:49.697Z,1.23
2023-03-22T10:41:18.646Z,1.80
2023-03-22T10:43:49.899Z,1.67
2023-03-22T10:46:21.565Z,2.80
2023-03-22T10:48:51.259Z,1.92
2023-03-22T10:51:40.919Z,2.10
2023-03-22T10:54:14.079Z,1.33
2023-03-22T10:56:41.337Z,2.70
2023-03-22T10:59:08.706Z,3.28
2023-03-22T11:01:37.323Z,2.33
2023-03-22T11:04:05.038Z,1.50
2023-03-22T11:06:35.328Z,1.75
2023-03-22T11:09:16.754Z,2.10
2023-03-22T11:11:58.311Z,1.88
2023-03-22T11:14:36.740Z,2.13
2023-03-22T11:17:06.343Z,1.70
2023-03-22T11:19:37.635Z,1.40
2023-03-22T11:22:26.929Z,2.85
2023-03-22T11:24:56.643Z,1.15
2023-03-22T11:27:32.969Z,2.45
2023-03-22T11:30:20.225Z,2.45
2023-03-22T11:32:47.702Z,1.38
2023-03-22T11:35:16.104Z,1.50
2023-03-22T11:37:45.309Z,1.98
2023-03-22T11:40:17.817Z,1.85
2023-03-22T11:42:46.040Z,1.90
2023-03-22T11:45:23.250Z,1.65
2023-03-22T11:47:50.291Z,2.08
2023-03-22T11:50:28.425Z,1.95
2023-03-22T11:52:56.745Z,1.20
2023-03-22T11:55:25.269Z,2.80
2023-03-22T11:57:55.960Z,1.92
2023-03-22T12:00:28.705Z,2.35
2023-03-22T12:03:04.495Z,1.08
2023-03-22T12:05:39.601Z,1.33
2023-03-22T12:08:28.473Z,1.52
2023-03-22T12:11:05.794Z,2.30
2023-03-22T12:13:57.484Z,1.55
2023-03-22T12:16:33.490Z,2.08
2023-03-22T12:19:22.573Z,1.00
2023-03-22T12:21:51.448Z,2.15
2023-03-22T12:24:31.488Z,1.10
2023-03-22T12:27:03.705Z,1.55
2023-03-22T12:29:31.844Z,1.85
2023-03-22T12:32:09.741Z,1.60
2023-03-22T12:34:42.301Z,2.05
2023-03-22T12:37:15.324Z,1.60
2023-03-22T12:40:01.804Z,1.48
2023-03-22T12:42:52.761Z,1.42
2023-03-22T12:45:26.346Z,1.08
2023-03-22T12:48:02.833Z,1.38
2023-03-22T12:50:36.303Z,1.35
2023-03-22T12:53:04.420Z,2.17
2023-03-22T12:55:36.840Z,1.30
2023-03-22T12:58:07.979Z,1.45
2023-03-22T13:00:50.810Z,0.98
2023-03-22T13:03:17.879Z,1.27
2023-03-22T13:05:46.971Z,1.58
2023-03-22T13:08:22.400Z,1.20
2023-03-22T13:11:00.490Z,1.98
2023-03-22T13:13:27.756Z,1.85
2023-03-22T13:16:10.690Z,3.00
2023-03-22T13:18:56.142Z,2.53
2023-03-22T13:21:29.830Z,3.25
2023-03-22T13:24:05.880Z,1.83
2023-03-22T13:26:41.054Z,2.33
2023-03-22T13:29:18.526Z,1.98
2023-03-22T13:31:51.378Z,1.50
2023-03-22T13:34:31.463Z,2.45
2023-03-22T13:36:59.164Z,1.98
2023-03-22T13:39:31.298Z,2.75
2023-03-22T13:42:20.984Z,1.77
2023-03-22T13:44:59.158Z,1.58
2023-03-22T13:47:30.628Z,1.42
2023-03-22T13:50:02.702Z,1.83
2023-03-22T13:52:42.066Z,1.85
2023-03-22T13:55:57.117Z,1.85
2023-03-22T13:58:38.672Z,2.10
2023-03-22T14:01:13.948Z,1.13
2023-03-22T14:03:47.583Z,3.58
2023-03-22T14:06:38.875Z,1.43
2023-03-22T14:09:23.433Z,1.52
2023-03-22T14:12:01.239Z,2.22
2023-03-22T14:14:32.317Z,1.50
2023-03-22T14:17:02.260Z,1.10
2023-03-22T14:19:32.938Z,2.70
